Time;durP1;ratioP1;P1;durP2;ratioP2;P2;SDS_P1;SDS_P2;PMS_P1;PMS_P2;Temp;Humidity;BMP_temperature;BMP_pressure;BME280_temperature;BME280_humidity;BME280_pressure;Samples;Min_cycle;Max_cycle;Signal;HPM_P1;HPM_P2
2024/01/06 00:02:08;;;;;;;4.95;1.40;;;6.40;99.90;;;;;;5016894;28;20042;-65
2024/01/06 00:04:34;;;;;;;9.18;1.38;;;6.30;99.90;;;;;;5016899;28;20025;-65
2024/01/06 00:07:00;;;;;;;2.20;1.38;;;6.20;99.90;;;;;;5017651;28;20033;-65
2024/01/06 00:09:25;;;;;;;4.53;0.90;;;6.20;99.90;;;;;;5016545;28;20029;-65
2024/01/06 00:11:51;;;;;;;6.32;2.15;;;6.20;99.90;;;;;;5017607;28;20066;-65
2024/01/06 00:14:16;;;;;;;3.33;1.40;;;6.10;99.90;;;;;;5017108;28;20022;-65
2024/01/06 00:16:42;;;;;;;6.22;1.08;;;6.10;99.90;;;;;;5017483;28;20025;-65
2024/01/06 00:19:07;;;;;;;3.00;1.40;;;6.20;99.90;;;;;;5017480;28;20056;-65
2024/01/06 00:21:33;;;;;;;4.32;1.20;;;6.10;99.90;;;;;;5016426;28;20030;-65
2024/01/06 00:23:58;;;;;;;6.45;1.60;;;6.10;99.90;;;;;;5017882;28;20033;-65
2024/01/06 00:26:27;;;;;;;7.13;1.55;;;6.10;99.90;;;;;;5017567;28;20030;-65
2024/01/06 00:28:52;;;;;;;16.65;1.30;;;6.10;99.90;;;;;;5017753;28;20032;-65
2024/01/06 00:31:18;;;;;;;3.83;1.00;;;6.10;99.90;;;;;;5017587;28;20026;-65
2024/01/06 00:33:44;;;;;;;2.60;1.08;;;6.10;99.90;;;;;;5017161;28;20026;-65
2024/01/06 00:36:09;;;;;;;2.53;1.27;;;6.10;99.90;;;;;;5016643;28;20025;-65
2024/01/06 00:38:35;;;;;;;4.88;1.33;;;6.00;99.90;;;;;;5016261;28;20093;-66
2024/01/06 00:41:01;;;;;;;2.60;1.45;;;6.00;99.90;;;;;;5017909;28;20032;-65
2024/01/06 00:43:27;;;;;;;4.05;1.23;;;6.10;99.90;;;;;;5017557;28;20030;-65
2024/01/06 00:45:52;;;;;;;1.48;0.80;;;6.10;99.90;;;;;;5016374;28;20117;-65
2024/01/06 00:48:18;;;;;;;3.75;1.15;;;6.10;99.90;;;;;;5017081;28;20096;-65
2024/01/06 00:50:44;;;;;;;6.93;1.83;;;6.20;99.90;;;;;;5017137;28;20026;-65
2024/01/06 00:53:09;;;;;;;4.47;1.05;;;6.10;99.90;;;;;;5016332;28;20018;-65
2024/01/06 00:55:35;;;;;;;4.25;0.98;;;6.20;99.90;;;;;;5016434;28;20026;-65
2024/01/06 00:58:00;;;;;;;4.32;1.40;;;6.20;99.90;;;;;;5016903;28;20025;-65
2024/01/06 01:00:27;;;;;;;5.95;1.13;;;6.30;99.90;;;;;;5016073;28;20080;-65
2024/01/06 01:02:52;;;;;;;3.50;1.10;;;6.20;99.90;;;;;;5016151;28;20135;-65
2024/01/06 01:05:18;;;;;;;2.95;1.38;;;6.30;99.90;;;;;;5016913;28;20029;-65
2024/01/06 01:07:44;;;;;;;2.83;1.10;;;6.40;99.90;;;;;;5016152;28;20053;-65
2024/01/06 01:10:09;;;;;;;2.50;1.27;;;6.40;99.90;;;;;;5016895;28;20017;-65
2024/01/06 01:12:35;;;;;;;3.03;0.85;;;6.40;99.90;;;;;;5016481;28;20099;-65
2024/01/06 01:15:01;;;;;;;6.32;1.05;;;6.40;99.90;;;;;;5017161;28;20022;-65
2024/01/06 01:17:26;;;;;;;3.83;1.27;;;6.40;99.90;;;;;;5017027;28;20026;-66
2024/01/06 01:19:52;;;;;;;7.07;1.15;;;6.30;99.90;;;;;;5017255;28;20033;-65
2024/01/06 01:22:18;;;;;;;5.88;1.73;;;6.20;99.90;;;;;;5017286;28;20030;-65
2024/01/06 01:24:44;;;;;;;4.15;1.10;;;6.20;99.90;;;;;;5016062;28;20033;-65
2024/01/06 01:27:09;;;;;;;3.58;1.52;;;6.20;99.90;;;;;;4999507;28;20045;-65
2024/01/06 01:29:35;;;;;;;2.60;1.00;;;6.30;99.90;;;;;;5016895;28;20026;-65
2024/01/06 01:32:01;;;;;;;3.63;1.50;;;6.40;99.90;;;;;;5016019;28;20022;-65
2024/01/06 01:34:26;;;;;;;7.43;1.73;;;6.40;99.90;;;;;;5016854;28;20029;-65
2024/01/06 01:36:52;;;;;;;5.78;1.40;;;6.30;99.90;;;;;;5015894;28;20040;-65
2024/01/06 01:39:17;;;;;;;5.30;1.33;;;6.30;99.90;;;;;;5016023;28;20045;-65
2024/01/06 01:41:43;;;;;;;2.72;1.52;;;6.20;99.90;;;;;;5016654;28;20052;-65
2024/01/06 01:44:08;;;;;;;1.73;1.10;;;6.10;99.90;;;;;;5015800;28;20113;-65
2024/01/06 01:46:34;;;;;;;6.72;1.63;;;6.10;99.90;;;;;;5015805;28;20117;-65
2024/01/06 01:49:01;;;;;;;3.17;1.17;;;6.10;99.90;;;;;;5016842;28;20072;-65
2024/01/06 01:51:29;;;;;;;4.22;1.33;;;6.20;99.90;;;;;;5020141;28;20022;-65
2024/01/06 01:53:57;;;;;;;4.88;1.27;;;6.30;99.90;;;;;;5019626;28;20049;-65
2024/01/06 01:56:24;;;;;;;2.72;1.05;;;6.30;99.90;;;;;;5019522;28;20029;-65
2024/01/06 01:58:49;;;;;;;2.88;1.10;;;6.30;99.90;;;;;;5019203;28;20060;-65
2024/01/06 02:01:16;;;;;;;4.43;1.33;;;6.20;99.90;;;;;;5020144;28;20057;-65
2024/01/06 02:03:45;;;;;;;2.35;1.00;;;6.30;99.90;;;;;;5018818;28;20034;-65
2024/01/06 02:06:11;;;;;;;4.00;1.60;;;6.30;99.90;;;;;;5018907;28;20026;-65
2024/01/06 02:08:37;;;;;;;8.02;1.63;;;6.20;99.90;;;;;;5018934;28;20022;-65
2024/01/06 02:11:03;;;;;;;9.52;1.33;;;6.40;99.90;;;;;;5019830;28;20022;-65
2024/01/06 02:13:36;;;;;;;4.60;1.40;;;6.40;99.90;;;;;;5019779;28;20022;-65
2024/01/06 02:16:04;;;;;;;8.40;1.15;;;6.40;99.90;;;;;;5019615;28;20057;-65
2024/01/06 02:18:30;;;;;;;5.03;1.40;;;6.50;99.90;;;;;;5019666;28;20026;-65
2024/01/06 02:20:58;;;;;;;3.30;0.95;;;6.50;99.90;;;;;;5019886;28;20026;-65
2024/01/06 02:23:24;;;;;;;5.30;1.25;;;6.50;99.90;;;;;;5018862;28;20026;-65
2024/01/06 02:25:50;;;;;;;6.13;1.20;;;6.60;99.90;;;;;;5019740;28;20099;-65
2024/01/06 02:28:15;;;;;;;3.25;1.00;;;6.60;99.90;;;;;;5018588;28;20022;-65
2024/01/06 02:30:41;;;;;;;5.95;1.55;;;6.50;99.90;;;;;;5019421;28;20029;-65
2024/01/06 02:33:06;;;;;;;3.47;1.33;;;6.50;99.90;;;;;;5018392;28;20029;-65
2024/01/06 02:35:32;;;;;;;2.65;0.90;;;6.60;99.90;;;;;;5019468;28;20026;-65
2024/01/06 02:37:57;;;;;;;1.98;1.05;;;6.50;99.90;;;;;;5018836;28;20030;-65
2024/01/06 02:40:23;;;;;;;2.92;1.52;;;6.60;99.90;;;;;;5019535;28;20096;-65
2024/01/06 02:42:48;;;;;;;1.60;1.08;;;6.60;99.90;;;;;;5018512;28;20021;-65
2024/01/06 02:45:14;;;;;;;7.50;1.85;;;6.60;99.90;;;;;;5018197;28;20076;-65
2024/01/06 02:47:39;;;;;;;4.32;1.20;;;6.70;99.90;;;;;;5019521;28;20033;-65
2024/01/06 02:50:05;;;;;;;4.70;1.23;;;6.70;99.90;;;;;;5018931;28;20030;-65
2024/01/06 02:52:31;;;;;;;2.10;1.40;;;6.60;99.90;;;;;;5018169;28;20041;-65
2024/01/06 02:54:57;;;;;;;7.90;1.27;;;6.70;99.90;;;;;;5018907;28;20022;-65
2024/01/06 02:57:22;;;;;;;5.10;1.50;;;6.70;99.90;;;;;;5019526;28;20029;-65
2024/01/06 02:59:48;;;;;;;6.50;1.95;;;6.70;99.90;;;;;;5017860;28;20029;-66
2024/01/06 03:02:13;;;;;;;2.95;1.50;;;6.70;99.90;;;;;;5017331;28;20038;-65
2024/01/06 03:04:39;;;;;;;2.47;1.38;;;6.70;99.90;;;;;;5017909;28;20022;-65
2024/01/06 03:07:04;;;;;;;4.57;1.42;;;6.80;99.90;;;;;;5017745;28;20049;-65
2024/01/06 03:09:30;;;;;;;3.67;1.48;;;6.80;99.90;;;;;;5018521;28;20048;-65
2024/01/06 03:11:56;;;;;;;5.57;1.77;;;6.70;99.90;;;;;;5018593;28;20048;-65
2024/01/06 03:14:21;;;;;;;7.90;1.80;;;6.50;99.90;;;;;;5017656;28;20021;-65
2024/01/06 03:16:47;;;;;;;6.57;1.80;;;6.60;99.90;;;;;;5017611;28;20087;-65
2024/01/06 03:19:12;;;;;;;5.50;1.70;;;6.50;99.90;;;;;;5018562;28;20033;-65
2024/01/06 03:21:38;;;;;;;6.38;1.85;;;6.60;99.90;;;;;;5017722;28;20022;-65
2024/01/06 03:24:04;;;;;;;3.70;1.45;;;6.50;99.90;;;;;;5018673;28;20030;-65
2024/01/06 03:26:30;;;;;;;5.40;1.95;;;6.70;99.90;;;;;;5017431;28;20022;-65
2024/01/06 03:28:56;;;;;;;3.45;1.70;;;6.70;99.90;;;;;;5017369;28;20032;-65
2024/01/06 03:31:22;;;;;;;4.57;1.50;;;6.80;99.90;;;;;;5018136;28;20030;-65
2024/01/06 03:33:48;;;;;;;2.85;1.65;;;6.80;99.90;;;;;;5017220;28;20078;-65
2024/01/06 03:36:15;;;;;;;4.30;1.60;;;6.80;99.90;;;;;;5018179;28;20022;-65
2024/01/06 03:38:41;;;;;;;4.10;1.83;;;6.90;99.90;;;;;;5018076;28;20097;-65
2024/01/06 03:41:07;;;;;;;8.45;1.92;;;6.80;99.90;;;;;;5017268;28;20057;-65
2024/01/06 03:43:33;;;;;;;5.70;2.05;;;6.50;99.90;;;;;;5017968;28;20092;-65
2024/01/06 03:46:00;;;;;;;9.25;2.30;;;6.50;99.90;;;;;;5017932;28;20033;-65
2024/01/06 03:48:26;;;;;;;3.03;1.55;;;6.30;99.90;;;;;;5017972;28;20028;-65
2024/01/06 03:50:52;;;;;;;4.28;2.40;;;6.30;99.90;;;;;;5017964;28;20050;-65
2024/01/06 03:53:18;;;;;;;6.40;2.30;;;6.40;99.90;;;;;;5017143;28;20116;-65
2024/01/06 03:55:43;;;;;;;10.75;2.92;;;6.40;99.90;;;;;;5016970;28;20037;-65
2024/01/06 03:58:09;;;;;;;4.43;2.42;;;6.40;99.90;;;;;;5016915;28;20026;-65
2024/01/06 04:00:34;;;;;;;7.68;2.45;;;6.30;99.90;;;;;;5017915;28;20079;-65
2024/01/06 04:03:00;;;;;;;10.63;2.80;;;6.30;99.90;;;;;;5017132;28;20044;-65
2024/01/06 04:05:25;;;;;;;5.53;2.85;;;6.40;99.90;;;;;;5017326;28;20026;-65
2024/01/06 04:07:51;;;;;;;4.00;2.33;;;6.50;99.90;;;;;;5016939;28;20021;-65
2024/01/06 04:10:16;;;;;;;5.78;2.97;;;6.60;99.90;;;;;;5017064;28;20083;-65
2024/01/06 04:12:42;;;;;;;10.23;3.17;;;6.60;99.90;;;;;;5016541;28;20029;-65
2024/01/06 04:15:08;;;;;;;8.25;2.80;;;6.50;99.90;;;;;;5017496;28;20160;-65
2024/01/06 04:17:33;;;;;;;6.72;2.88;;;6.50;99.90;;;;;;5017322;28;20018;-65
2024/01/06 04:19:59;;;;;;;5.28;2.50;;;6.50;99.90;;;;;;5016917;28;20026;-65
2024/01/06 04:22:24;;;;;;;5.30;2.85;;;6.50;99.90;;;;;;5017541;28;20030;-65
2024/01/06 04:24:50;;;;;;;7.30;2.67;;;6.50;99.90;;;;;;5016723;28;20026;-65
2024/01/06 04:27:16;;;;;;;6.90;3.30;;;6.40;99.90;;;;;;5016461;28;20116;-65
2024/01/06 04:29:41;;;;;;;8.77;2.97;;;6.30;99.90;;;;;;5017639;28;20033;-65
2024/01/06 04:32:07;;;;;;;4.22;2.30;;;6.10;99.90;;;;;;5016381;28;20030;-65
2024/01/06 04:34:33;;;;;;;5.40;2.78;;;6.00;99.90;;;;;;5017507;28;20022;-65
2024/01/06 04:36:58;;;;;;;9.85;2.38;;;5.90;99.90;;;;;;5016450;28;20018;-65
2024/01/06 04:39:24;;;;;;;6.65;2.70;;;5.80;99.90;;;;;;5016299;28;20085;-65
2024/01/06 04:41:49;;;;;;;6.22;3.17;;;5.70;99.90;;;;;;5017281;28;20109;-65
2024/01/06 04:44:15;;;;;;;6.03;2.60;;;5.70;99.90;;;;;;5017237;28;20038;-65
2024/01/06 04:46:41;;;;;;;10.25;3.28;;;5.60;99.90;;;;;;5017117;28;20033;-65
2024/01/06 04:49:06;;;;;;;7.15;3.00;;;5.60;99.90;;;;;;5016332;28;20022;-65
2024/01/06 04:51:32;;;;;;;6.60;2.40;;;5.80;99.90;;;;;;5016026;28;20033;-65
2024/01/06 04:53:57;;;;;;;5.82;2.75;;;6.00;99.90;;;;;;5017155;28;20025;-65
2024/01/06 04:56:23;;;;;;;6.78;2.78;;;6.10;99.90;;;;;;5017133;28;20026;-65
2024/01/06 04:58:49;;;;;;;7.70;2.85;;;6.10;99.90;;;;;;5016226;28;20018;-65
2024/01/06 05:01:14;;;;;;;7.30;2.83;;;6.10;99.90;;;;;;5017342;28;20025;-65
2024/01/06 05:03:40;;;;;;;9.18;3.95;;;6.10;99.90;;;;;;5016133;28;20092;-65
2024/01/06 05:06:05;;;;;;;12.80;3.28;;;6.20;99.90;;;;;;5017143;28;20022;-65
2024/01/06 05:08:31;;;;;;;5.57;2.97;;;6.20;99.90;;;;;;5016359;28;20080;-65
2024/01/06 05:10:56;;;;;;;12.32;3.38;;;6.20;99.90;;;;;;5016396;28;20034;-65
2024/01/06 05:13:22;;;;;;;11.70;2.90;;;6.20;99.90;;;;;;5016976;28;20116;-65
2024/01/06 05:15:48;;;;;;;6.88;2.97;;;6.30;99.90;;;;;;5017103;28;20026;-65
2024/01/06 05:18:13;;;;;;;3.70;2.50;;;6.30;99.90;;;;;;5016809;28;20060;-65
2024/01/06 05:20:40;;;;;;;5.50;3.15;;;6.20;99.90;;;;;;5016108;28;20089;-65
2024/01/06 05:23:06;;;;;;;9.57;2.60;;;6.20;99.90;;;;;;5016922;28;20042;-65
2024/01/06 05:25:32;;;;;;;4.30;2.58;;;6.30;99.90;;;;;;5020253;28;20032;-65
2024/01/06 05:27:58;;;;;;;6.72;2.65;;;6.30;99.90;;;;;;5020577;28;20029;-65
2024/01/06 05:30:23;;;;;;;8.48;3.08;;;6.30;99.90;;;;;;5019498;28;20022;-65
2024/01/06 05:32:49;;;;;;;5.30;2.63;;;6.30;99.90;;;;;;5019508;28;20024;-65
2024/01/06 05:35:16;;;;;;;7.60;3.05;;;6.30;99.90;;;;;;5019535;28;20061;-66
2024/01/06 05:37:42;;;;;;;15.90;3.28;;;6.30;99.90;;;;;;5020280;28;20026;-65
2024/01/06 05:40:08;;;;;;;5.93;2.53;;;6.30;99.90;;;;;;5020546;28;20037;-65
2024/01/06 05:42:33;;;;;;;6.30;2.97;;;6.30;99.90;;;;;;5020201;28;20029;-65
2024/01/06 05:44:59;;;;;;;7.13;3.15;;;6.40;99.90;;;;;;5020205;28;20030;-65
2024/01/06 05:47:24;;;;;;;8.13;3.75;;;6.40;99.90;;;;;;5020500;28;20053;-65
2024/01/06 05:49:50;;;;;;;13.10;4.28;;;6.50;99.90;;;;;;5020005;28;20036;-65
2024/01/06 05:52:16;;;;;;;15.55;4.35;;;6.30;99.90;;;;;;5019705;28;20018;-65
2024/01/06 05:54:42;;;;;;;10.35;4.43;;;6.30;99.90;;;;;;5020356;28;20081;-65
2024/01/06 05:57:08;;;;;;;10.52;4.35;;;6.20;99.90;;;;;;5019183;28;20014;-65
2024/01/06 05:59:33;;;;;;;12.07;3.78;;;6.10;99.90;;;;;;5019955;28;20024;-65
2024/01/06 06:01:59;;;;;;;10.90;3.92;;;6.00;99.90;;;;;;5020117;28;20038;-65
2024/01/06 06:04:25;;;;;;;8.77;3.63;;;6.00;99.90;;;;;;5019786;28;20037;-65
2024/01/06 06:06:50;;;;;;;8.07;3.63;;;6.20;99.90;;;;;;5018986;28;20060;-65
2024/01/06 06:09:16;;;;;;;9.70;4.00;;;6.10;99.90;;;;;;5019747;28;20054;-65
2024/01/06 06:11:42;;;;;;;10.98;3.30;;;6.10;99.90;;;;;;5019145;28;20045;-65
2024/01/06 06:14:09;;;;;;;8.57;3.42;;;6.10;99.90;;;;;;5019790;28;20046;-65
2024/01/06 06:16:34;;;;;;;7.18;3.78;;;6.00;99.90;;;;;;5018745;28;20032;-65
2024/01/06 06:19:00;;;;;;;12.30;3.83;;;5.90;99.90;;;;;;5019788;28;20026;-65
2024/01/06 06:21:25;;;;;;;5.13;3.05;;;6.10;99.90;;;;;;5019385;28;20113;-65
2024/01/06 06:23:51;;;;;;;9.63;3.60;;;6.20;99.90;;;;;;5019582;28;20102;-65
2024/01/06 06:26:17;;;;;;;6.65;3.85;;;6.30;99.90;;;;;;5018699;28;20033;-65
2024/01/06 06:28:42;;;;;;;7.45;3.90;;;6.30;99.90;;;;;;5019477;28;20022;-65
2024/01/06 06:31:08;;;;;;;8.20;3.00;;;6.40;99.90;;;;;;5018461;28;20030;-65
2024/01/06 06:33:34;;;;;;;5.85;3.15;;;6.30;99.90;;;;;;5018515;28;20030;-65
2024/01/06 06:35:59;;;;;;;6.20;2.70;;;6.10;99.90;;;;;;5018281;28;20022;-65
2024/01/06 06:38:28;;;;;;;10.13;3.63;;;6.20;99.90;;;;;;5019297;28;20022;-65
2024/01/06 06:40:53;;;;;;;4.93;3.03;;;6.20;99.90;;;;;;5019227;28;20030;-65
2024/01/06 06:43:19;;;;;;;8.50;3.78;;;6.20;99.90;;;;;;5018561;28;20032;-65
2024/01/06 06:45:45;;;;;;;6.28;3.25;;;6.20;99.90;;;;;;5019087;28;20022;-65
2024/01/06 06:48:10;;;;;;;6.30;2.95;;;6.10;99.90;;;;;;5018150;28;20036;-65
2024/01/06 06:50:36;;;;;;;6.50;3.53;;;6.10;99.90;;;;;;5019001;28;20025;-65
2024/01/06 06:53:02;;;;;;;9.75;3.10;;;6.10;99.90;;;;;;5018923;28;20022;-65
2024/01/06 06:55:27;;;;;;;8.52;3.50;;;6.20;99.90;;;;;;5018960;28;20080;-65
2024/01/06 06:57:53;;;;;;;8.05;3.00;;;6.30;99.90;;;;;;5018142;28;20064;-65
2024/01/06 07:00:19;;;;;;;5.53;2.70;;;6.40;99.90;;;;;;5017902;28;20061;-65
2024/01/06 07:02:45;;;;;;;12.45;3.05;;;6.40;99.90;;;;;;5018634;28;20145;-65
2024/01/06 07:05:11;;;;;;;4.63;2.40;;;6.40;99.90;;;;;;5018911;28;20029;-65
2024/01/06 07:07:37;;;;;;;7.13;2.80;;;6.20;99.90;;;;;;5017827;28;20033;-65
2024/01/06 07:10:07;;;;;;;7.43;2.97;;;6.20;99.90;;;;;;5018023;28;20052;-65
2024/01/06 07:12:32;;;;;;;7.85;3.10;;;6.30;99.90;;;;;;5017561;28;20025;-65
2024/01/06 07:15:01;;;;;;;9.45;2.95;;;6.10;99.90;;;;;;5018884;28;20022;-65
2024/01/06 07:17:26;;;;;;;15.23;3.10;;;6.10;99.90;;;;;;5018811;28;20022;-65
2024/01/06 07:19:53;;;;;;;6.88;3.00;;;6.30;99.90;;;;;;5017597;28;20026;-66
2024/01/06 07:22:19;;;;;;;7.80;3.80;;;6.30;99.90;;;;;;5017459;28;20053;-65
2024/01/06 07:24:45;;;;;;;5.15;2.38;;;6.40;99.90;;;;;;5017590;28;20108;-65
2024/01/06 07:27:10;;;;;;;4.60;2.30;;;6.50;99.90;;;;;;5018265;28;20024;-65
2024/01/06 07:29:37;;;;;;;13.48;3.10;;;6.40;99.90;;;;;;5018303;28;20060;-65
2024/01/06 07:32:03;;;;;;;5.05;2.38;;;6.50;99.90;;;;;;5018195;28;20029;-65
2024/01/06 07:34:28;;;;;;;3.30;2.60;;;6.50;99.90;;;;;;5018211;28;20026;-65
2024/01/06 07:36:54;;;;;;;10.88;2.95;;;6.60;99.90;;;;;;5017385;28;20052;-65
2024/01/06 07:39:19;;;;;;;10.45;3.00;;;6.60;99.90;;;;;;5018123;28;20021;-65
2024/01/06 07:41:48;;;;;;;6.00;2.30;;;6.60;99.90;;;;;;5017406;28;20030;-65
2024/01/06 07:44:15;;;;;;;9.20;2.75;;;6.60;99.90;;;;;;5017479;28;20033;-65
2024/01/06 07:46:41;;;;;;;6.40;2.95;;;6.60;99.90;;;;;;5017697;28;20026;-65
2024/01/06 07:49:07;;;;;;;5.22;2.85;;;6.50;99.90;;;;;;5017469;28;20048;-65
2024/01/06 07:51:34;;;;;;;13.10;3.03;;;6.50;99.90;;;;;;5017824;28;20021;-65
2024/01/06 07:54:00;;;;;;;7.05;2.35;;;6.50;99.90;;;;;;5017858;28;20022;-66
2024/01/06 07:56:26;;;;;;;7.40;3.10;;;6.50;99.90;;;;;;5017869;28;20033;-65
2024/01/06 07:58:52;;;;;;;9.48;2.85;;;6.60;99.90;;;;;;5017771;28;20029;-65
2024/01/06 08:01:18;;;;;;;9.13;2.97;;;6.60;99.90;;;;;;5017786;28;20045;-65
2024/01/06 08:03:43;;;;;;;8.00;2.85;;;6.70;99.90;;;;;;5017710;28;20041;-65
2024/01/06 08:06:10;;;;;;;9.05;3.65;;;6.60;99.90;;;;;;5017680;28;20029;-65
2024/01/06 08:08:35;;;;;;;7.38;2.92;;;6.40;99.90;;;;;;5017588;28;20026;-65
2024/01/06 08:11:01;;;;;;;11.00;2.50;;;6.30;99.90;;;;;;5017478;28;20033;-65
2024/01/06 08:13:26;;;;;;;4.78;2.30;;;6.20;99.90;;;;;;5016561;28;20022;-65
2024/01/06 08:15:52;;;;;;;7.00;2.10;;;6.30;99.90;;;;;;5017734;28;20026;-65
2024/01/06 08:18:18;;;;;;;9.13;2.30;;;6.20;99.90;;;;;;5017467;28;20076;-65
2024/01/06 08:20:43;;;;;;;8.63;2.15;;;6.20;99.90;;;;;;5017410;28;20021;-65
2024/01/06 08:23:10;;;;;;;7.05;2.50;;;6.10;99.90;;;;;;5017340;28;20029;-65
2024/01/06 08:25:36;;;;;;;8.38;2.55;;;6.20;99.90;;;;;;5017278;28;20026;-65
2024/01/06 08:28:01;;;;;;;5.03;2.53;;;6.20;99.90;;;;;;5017332;28;20034;-65
2024/01/06 08:30:27;;;;;;;9.38;2.83;;;6.30;99.90;;;;;;5016731;28;20030;-65
2024/01/06 08:32:52;;;;;;;6.13;2.58;;;6.30;99.90;;;;;;5016295;28;20032;-65
2024/01/06 08:35:19;;;;;;;9.38;2.47;;;6.20;99.90;;;;;;5017542;28;20057;-66
2024/01/06 08:37:45;;;;;;;3.45;2.08;;;6.10;99.90;;;;;;5017260;28;20025;-65
2024/01/06 08:40:11;;;;;;;10.05;2.55;;;6.20;99.90;;;;;;5016202;28;20022;-65
2024/01/06 08:42:36;;;;;;;4.85;2.30;;;6.30;99.90;;;;;;5016297;28;20026;-65
2024/01/06 08:45:02;;;;;;;6.78;2.30;;;6.20;99.90;;;;;;5016471;28;20068;-65
2024/01/06 08:47:28;;;;;;;6.60;2.47;;;6.20;99.90;;;;;;5017429;28;20039;-65
2024/01/06 08:49:53;;;;;;;12.07;2.45;;;6.20;99.90;;;;;;5016160;28;20033;-65
2024/01/06 08:52:19;;;;;;;6.75;2.75;;;6.20;99.90;;;;;;5016121;28;20045;-66
2024/01/06 08:54:44;;;;;;;4.25;2.22;;;6.30;99.90;;;;;;5016316;28;20026;-66
2024/01/06 08:57:10;;;;;;;3.85;2.05;;;6.40;99.90;;;;;;5017051;28;20034;-65
2024/01/06 08:59:35;;;;;;;7.18;2.58;;;6.40;99.90;;;;;;5019413;28;20029;-65
2024/01/06 09:02:01;;;;;;;7.00;2.55;;;6.40;99.90;;;;;;5021460;28;20084;-65
2024/01/06 09:04:27;;;;;;;6.18;2.45;;;6.40;99.90;;;;;;5020208;28;20036;-65
2024/01/06 09:06:52;;;;;;;8.88;2.70;;;6.50;99.90;;;;;;5021301;28;20030;-65
2024/01/06 09:09:18;;;;;;;7.40;2.45;;;6.60;99.90;;;;;;5020863;28;20084;-65
2024/01/06 09:11:44;;;;;;;7.55;2.60;;;6.50;99.90;;;;;;5020754;28;20029;-65
2024/01/06 09:14:12;;;;;;;11.52;2.65;;;6.40;99.90;;;;;;5021117;28;20018;-65
2024/01/06 09:16:38;;;;;;;7.22;2.17;;;6.30;99.90;;;;;;5020199;28;20045;-65
2024/01/06 09:19:04;;;;;;;4.93;2.05;;;6.30;99.90;;;;;;5020826;28;20033;-66
2024/01/06 09:21:29;;;;;;;5.53;2.63;;;6.40;99.90;;;;;;5020652;28;20026;-65
2024/01/06 09:23:55;;;;;;;8.13;2.45;;;6.40;99.90;;;;;;5020263;28;20018;-65
2024/01/06 09:26:20;;;;;;;5.45;2.38;;;6.40;99.90;;;;;;5020047;28;20026;-65
2024/01/06 09:28:46;;;;;;;7.10;2.60;;;6.40;99.90;;;;;;5020624;28;20033;-65
2024/01/06 09:31:11;;;;;;;7.68;2.33;;;6.40;99.90;;;;;;5019828;28;20026;-65
2024/01/06 09:33:38;;;;;;;9.07;3.15;;;6.40;99.90;;;;;;5019942;28;20033;-65
2024/01/06 09:36:04;;;;;;;17.08;2.45;;;6.50;99.90;;;;;;5020660;28;20018;-65
2024/01/06 09:38:29;;;;;;;8.93;2.83;;;6.50;99.90;;;;;;5020421;28;20018;-65
2024/01/06 09:40:55;;;;;;;10.18;3.72;;;6.60;99.90;;;;;;5020840;28;20058;-65
2024/01/06 09:43:21;;;;;;;4.38;2.03;;;6.50;99.90;;;;;;5019349;28;20026;-65
2024/01/06 09:46:10;;;;;;;4.47;1.92;;;6.60;99.90;;;;;;5020372;28;20029;-65
2024/01/06 09:48:41;;;;;;;6.00;2.20;;;6.80;99.90;;;;;;5020473;28;20026;-65
2024/01/06 09:51:10;;;;;;;5.97;2.42;;;6.90;99.90;;;;;;5020388;28;20049;-65
2024/01/06 09:53:48;;;;;;;9.60;2.78;;;7.00;99.90;;;;;;5019232;28;20022;-65
2024/01/06 09:56:16;;;;;;;5.65;2.25;;;7.00;99.90;;;;;;5019193;28;20030;-65
2024/01/06 09:58:41;;;;;;;6.03;2.40;;;7.00;99.90;;;;;;5019336;28;20081;-65
2024/01/06 10:01:08;;;;;;;9.48;2.58;;;7.00;99.90;;;;;;5019904;28;20053;-65
2024/01/06 10:03:35;;;;;;;5.78;2.00;;;7.00;99.90;;;;;;5019354;28;20060;-65
2024/01/06 10:06:03;;;;;;;5.97;2.53;;;6.90;99.90;;;;;;5019028;28;20026;-65
2024/01/06 10:08:29;;;;;;;7.95;2.42;;;7.00;99.90;;;;;;5019160;28;20029;-65
2024/01/06 10:10:55;;;;;;;8.27;3.15;;;7.00;99.90;;;;;;5018609;28;20109;-65
2024/01/06 10:13:20;;;;;;;18.50;3.35;;;7.10;99.90;;;;;;5018988;28;20109;-65
2024/01/06 10:15:46;;;;;;;5.43;2.53;;;7.00;99.90;;;;;;5019684;28;20057;-65
2024/01/06 10:18:12;;;;;;;4.82;2.40;;;6.80;99.90;;;;;;5019646;28;20069;-65
2024/01/06 10:20:38;;;;;;;5.32;2.10;;;6.60;99.90;;;;;;5018713;28;20030;-65
2024/01/06 10:23:06;;;;;;;9.38;3.17;;;6.50;99.90;;;;;;5019542;28;20113;-65
2024/01/06 10:25:32;;;;;;;12.90;3.05;;;6.50;99.90;;;;;;5018667;28;20037;-65
2024/01/06 10:28:01;;;;;;;15.15;2.53;;;6.40;99.90;;;;;;5018725;28;20022;-65
2024/01/06 10:30:26;;;;;;;4.43;2.30;;;6.40;99.90;;;;;;5018545;28;20026;-65
2024/01/06 10:32:52;;;;;;;9.48;2.50;;;6.40;99.90;;;;;;5019411;28;20037;-65
2024/01/06 10:35:18;;;;;;;8.43;2.72;;;6.40;99.90;;;;;;5019590;28;20029;-65
2024/01/06 10:37:45;;;;;;;10.73;3.08;;;6.50;99.90;;;;;;5019623;28;20022;-65
2024/01/06 10:40:13;;;;;;;8.80;2.83;;;6.50;99.90;;;;;;5019260;28;20026;-65
2024/01/06 10:42:40;;;;;;;6.38;2.90;;;6.60;99.90;;;;;;5018270;28;20030;-65
2024/01/06 10:45:10;;;;;;;5.03;2.53;;;6.60;99.90;;;;;;5019164;28;20026;-65
2024/01/06 10:47:41;;;;;;;6.78;3.35;;;6.60;99.90;;;;;;5018435;28;20025;-65
2024/01/06 10:50:08;;;;;;;7.72;3.75;;;6.50;99.90;;;;;;5018377;28;20026;-65
2024/01/06 10:52:35;;;;;;;12.68;4.15;;;6.50;99.90;;;;;;5018870;28;20072;-65
2024/01/06 10:55:02;;;;;;;10.90;3.72;;;6.60;99.90;;;;;;5018199;28;20029;-65
2024/01/06 10:57:31;;;;;;;10.60;4.63;;;6.60;99.90;;;;;;5018892;28;20064;-65
2024/01/06 10:59:58;;;;;;;6.05;2.47;;;6.40;99.90;;;;;;5018844;28;20018;-65
2024/01/06 11:02:25;;;;;;;10.25;3.30;;;6.50;99.90;;;;;;5018750;28;20048;-65
2024/01/06 11:04:51;;;;;;;7.93;3.83;;;6.50;99.90;;;;;;5017966;28;20022;-65
2024/01/06 11:07:19;;;;;;;8.90;2.65;;;6.80;99.90;;;;;;5018251;28;20076;-65
2024/01/06 11:09:53;;;;;;;7.13;3.47;;;6.90;99.90;;;;;;5018843;28;20024;-65
2024/01/06 11:12:19;;;;;;;7.80;3.05;;;7.00;99.90;;;;;;5017859;28;20180;-65
2024/01/06 11:14:45;;;;;;;6.03;3.15;;;6.80;99.90;;;;;;5018508;28;20100;-65
2024/01/06 11:17:11;;;;;;;6.45;3.13;;;6.80;99.90;;;;;;5017647;28;20018;-65
2024/01/06 11:19:40;;;;;;;8.55;3.13;;;6.90;99.90;;;;;;5018000;28;20020;-65
2024/01/06 11:22:31;;;;;;;6.72;3.40;;;6.90;99.90;;;;;;5017396;28;20029;-65
2024/01/06 11:25:04;;;;;;;5.97;3.10;;;7.00;99.90;;;;;;5018002;28;20029;-65
2024/01/06 11:27:30;;;;;;;8.23;3.28;;;7.20;99.90;;;;;;5019277;28;20022;-65
2024/01/06 11:29:58;;;;;;;7.65;3.20;;;7.10;99.90;;;;;;5018588;28;20022;-65
2024/01/06 11:32:39;;;;;;;7.13;3.03;;;7.10;99.90;;;;;;5017424;28;20094;-65
2024/01/06 11:35:12;;;;;;;5.07;3.10;;;7.10;99.90;;;;;;5017450;28;20022;-65
2024/01/06 11:37:41;;;;;;;7.53;3.30;;;7.20;99.90;;;;;;5018268;28;20056;-65
2024/01/06 11:40:25;;;;;;;5.05;3.30;;;7.20;99.90;;;;;;5018196;28;20018;-65
2024/01/06 11:43:09;;;;;;;4.45;2.85;;;7.20;99.90;;;;;;5017547;28;20022;-65
2024/01/06 11:45:36;;;;;;;7.50;3.28;;;7.10;99.90;;;;;;5018283;28;20018;-65
2024/01/06 11:48:04;;;;;;;16.27;4.53;;;6.90;99.90;;;;;;5017132;28;20018;-65
2024/01/06 11:50:34;;;;;;;9.18;4.30;;;6.80;99.90;;;;;;5017925;28;20053;-65
2024/01/06 11:53:01;;;;;;;9.48;4.13;;;6.80;99.90;;;;;;5017288;28;20018;-65
2024/01/06 11:55:34;;;;;;;6.68;3.40;;;6.80;99.90;;;;;;5016910;28;20017;-65
2024/01/06 11:58:03;;;;;;;5.93;3.33;;;6.80;99.90;;;;;;5017504;28;20028;-65
2024/01/06 12:00:29;;;;;;;9.23;3.80;;;6.70;99.90;;;;;;5017720;28;20054;-65
2024/01/06 12:02:59;;;;;;;7.03;3.35;;;6.80;99.90;;;;;;5017800;28;20049;-65
2024/01/06 12:05:26;;;;;;;5.18;3.83;;;6.80;99.90;;;;;;5017795;28;20045;-65
2024/01/06 12:08:06;;;;;;;7.18;3.53;;;6.90;99.90;;;;;;5017623;28;20022;-65
2024/01/06 12:10:33;;;;;;;11.90;3.38;;;6.90;99.90;;;;;;5017665;28;20017;-65
2024/01/06 12:13:03;;;;;;;5.65;3.25;;;6.90;99.90;;;;;;5017637;28;20102;-65
2024/01/06 12:15:30;;;;;;;5.53;3.17;;;7.10;99.90;;;;;;5017634;28;20014;-65
2024/01/06 12:17:56;;;;;;;7.13;3.42;;;7.20;99.90;;;;;;5017003;28;20089;-65
2024/01/06 12:20:23;;;;;;;11.85;3.78;;;7.30;99.90;;;;;;5017271;28;20061;-65
2024/01/06 12:22:51;;;;;;;7.57;3.60;;;7.30;99.90;;;;;;5017209;28;20041;-65
2024/01/06 12:25:17;;;;;;;5.03;3.55;;;7.30;99.90;;;;;;5016540;28;20030;-66
2024/01/06 12:27:44;;;;;;;7.05;3.33;;;7.30;99.90;;;;;;5016415;28;20032;-65
2024/01/06 12:30:20;;;;;;;6.88;3.45;;;7.20;99.90;;;;;;5017245;28;20089;-65
2024/01/06 12:32:46;;;;;;;5.03;3.13;;;7.30;99.90;;;;;;5017265;28;20018;-65
2024/01/06 12:35:12;;;;;;;9.48;3.53;;;7.30;99.90;;;;;;5017186;28;20042;-65
2024/01/06 12:37:38;;;;;;;6.28;3.78;;;7.30;99.90;;;;;;5017671;28;20045;-65
2024/01/06 12:40:05;;;;;;;11.13;4.88;;;7.30;99.90;;;;;;5016815;28;20025;-65
2024/01/06 12:42:31;;;;;;;15.68;6.32;;;7.30;99.90;;;;;;5017189;28;20026;-65
2024/01/06 12:44:56;;;;;;;13.30;4.95;;;7.20;99.90;;;;;;5017675;28;20030;-65
2024/01/06 12:47:22;;;;;;;7.13;3.88;;;7.20;99.90;;;;;;5017128;28;20037;-65
2024/01/06 12:49:48;;;;;;;9.07;3.58;;;7.30;99.90;;;;;;5017365;28;20026;-65
2024/01/06 12:52:13;;;;;;;7.97;4.18;;;7.40;99.90;;;;;;5016211;28;20073;-65